createdAt,value
2022-09-11T00:00:42.659Z,100035.06
2022-09-11T00:03:50.118Z,100038.09
2022-09-11T00:06:54.060Z,100045.00
2022-09-11T00:10:02.870Z,100042.38
2022-09-11T00:13:05.803Z,100044.37
2022-09-11T00:16:19.859Z,100041.03
2022-09-11T00:19:22.312Z,100039.22
2022-09-11T00:22:24.530Z,100025.06
2022-09-11T00:25:26.539Z,100022.59
2022-09-11T00:28:29.850Z,100026.38
2022-09-11T00:31:32.687Z,100032.06
2022-09-11T00:34:43.083Z,100023.34
2022-09-11T00:37:51.193Z,100020.03
2022-09-11T00:40:53.354Z,100019.22
2022-09-11T00:44:20.721Z,100023.28
2022-09-11T00:47:29.216Z,100029.69
2022-09-11T00:50:35.946Z,100024.41
2022-09-11T00:53:38.210Z,100024.56
2022-09-11T00:56:44.797Z,100025.69
2022-09-11T00:59:52.388Z,100027.00
2022-09-11T01:02:57.044Z,100027.00
2022-09-11T01:06:12.744Z,100027.31
2022-09-11T01:09:29.240Z,100018.88
2022-09-11T01:12:42.640Z,100021.97
2022-09-11T01:15:51.585Z,100026.75
2022-09-11T01:19:05.038Z,100030.06
2022-09-11T01:22:18.405Z,100024.59
2022-09-11T01:25:34.531Z,100020.97
2022-09-11T01:28:40.857Z,100013.75
2022-09-11T01:31:48.323Z,100003.69
2022-09-11T01:34:52.449Z,100008.56
2022-09-11T01:38:09.343Z,100000.00
2022-09-11T01:41:20.278Z,100003.94
2022-09-11T01:44:32.755Z,99998.28
2022-09-11T01:47:35.329Z,99991.16
2022-09-11T01:50:39.493Z,99998.66
2022-09-11T01:53:50.379Z,99994.53
2022-09-11T01:57:00.416Z,99995.66
2022-09-11T02:00:06.986Z,99997.41
2022-09-11T02:03:27.377Z,99994.59
2022-09-11T02:06:43.359Z,99995.06
2022-09-11T02:10:02.240Z,99992.19
2022-09-11T02:13:07.839Z,99991.22
2022-09-11T02:16:32.798Z,99987.59
2022-09-11T02:19:35.438Z,99982.62
2022-09-11T02:22:38.667Z,99984.19
2022-09-11T02:25:55.486Z,99987.94
2022-09-11T02:29:04.662Z,99978.50
2022-09-11T02:32:17.434Z,99984.06
2022-09-11T02:35:29.831Z,99978.09
2022-09-11T02:38:47.071Z,99973.59
2022-09-11T02:41:55.440Z,99976.94
2022-09-11T02:45:05.736Z,99968.47
2022-09-11T02:48:26.708Z,99985.22
2022-09-11T02:51:39.158Z,99976.91
2022-09-11T02:54:45.363Z,99984.72
2022-09-11T02:57:51.748Z,99983.59
2022-09-11T03:00:59.493Z,99981.03
2022-09-11T03:04:01.541Z,99987.56
2022-09-11T03:07:06.555Z,99987.97
2022-09-11T03:10:11.878Z,99998.66
2022-09-11T03:13:17.184Z,99998.97
2022-09-11T03:16:20.548Z,99992.09
2022-09-11T03:19:22.802Z,99997.47
2022-09-11T03:22:43.418Z,99990.59
2022-09-11T03:25:57.512Z,99986.91
2022-09-11T03:29:00.926Z,99992.69
2022-09-11T03:32:16.767Z,99997.94
2022-09-11T03:35:18.772Z,99996.53
2022-09-11T03:38:21.351Z,99992.44
2022-09-11T03:41:26.781Z,99988.00
2022-09-11T03:44:33.188Z,99989.38
2022-09-11T03:47:35.294Z,99981.75
2022-09-11T03:50:37.826Z,99981.72
2022-09-11T03:53:40.882Z,99973.47
2022-09-11T03:56:43.248Z,99978.09
2022-09-11T03:59:54.633Z,99987.91
2022-09-11T04:03:04.600Z,99987.16
2022-09-11T04:06:17.660Z,99991.56
2022-09-11T04:09:30.329Z,99992.75
2022-09-11T04:12:36.140Z,99991.66
2022-09-11T04:15:38.231Z,99995.34
2022-09-11T04:18:45.782Z,99991.22
2022-09-11T04:21:48.279Z,99997.81
2022-09-11T04:24:51.315Z,100001.94
2022-09-11T04:27:57.527Z,99996.47
2022-09-11T04:31:07.124Z,99991.97
2022-09-11T04:34:11.280Z,99991.59
2022-09-11T04:37:13.880Z,99989.88
2022-09-11T04:40:16.580Z,99980.84
2022-09-11T04:43:18.841Z,99988.31
2022-09-11T04:46:46.308Z,99985.19
2022-09-11T04:49:52.625Z,99990.31
2022-09-11T04:52:55.146Z,99983.03
2022-09-11T04:56:08.733Z,99981.62
2022-09-11T04:59:29.053Z,99977.16
2022-09-11T05:02:35.632Z,99990.53
2022-09-11T05:05:47.584Z,99999.72
2022-09-11T05:08:53.122Z,100004.16
2022-09-11T05:11:59.409Z,100002.87
2022-09-11T05:15:04.359Z,99998.75
2022-09-11T05:18:07.597Z,99999.50
2022-09-11T05:21:13.993Z,99990.59
2022-09-11T05:24:34.582Z,99997.38
2022-09-11T05:27:38.552Z,100005.81
2022-09-11T05:30:40.680Z,100002.09
2022-09-11T05:33:45.635Z,100012.84
2022-09-11T05:36:48.020Z,100018.16
2022-09-11T05:39:52.454Z,100020.44
2022-09-11T05:42:59.139Z,100029.06
2022-09-11T05:46:02.504Z,100035.75
2022-09-11T05:49:05.476Z,100036.50
2022-09-11T05:52:16.417Z,100026.94
2022-09-11T05:55:18.817Z,100024.94
2022-09-11T05:58:21.974Z,100025.69
2022-09-11T06:01:24.845Z,100022.19
2022-09-11T06:04:28.172Z,100025.69
2022-09-11T06:07:30.546Z,100031.38
2022-09-11T06:13:39.547Z,100040.34
2022-09-11T06:16:44.898Z,100040.34
2022-09-11T06:19:47.687Z,100037.03
2022-09-11T06:22:51.031Z,100042.97
2022-09-11T06:25:57.703Z,100044.81
2022-09-11T06:29:04.812Z,100050.31
2022-09-11T06:32:12.781Z,100055.25
2022-09-11T06:35:22.287Z,100054.19
2022-09-11T06:38:25.098Z,100053.72
2022-09-11T06:41:40.519Z,100063.03
2022-09-11T06:44:43.739Z,100061.88
2022-09-11T06:47:54.160Z,100059.91
2022-09-11T06:51:02.227Z,100047.56
2022-09-11T06:54:06.237Z,100052.69
2022-09-11T06:57:11.017Z,100055.75
2022-09-11T07:00:23.871Z,100062.97
2022-09-11T07:03:28.007Z,100071.91
2022-09-11T07:06:39.907Z,100069.81
2022-09-11T07:09:42.036Z,100056.00
2022-09-11T07:12:44.763Z,100053.69
2022-09-11T07:16:04.051Z,100046.44
2022-09-11T07:22:31.697Z,100046.34
2022-09-11T07:25:35.634Z,100037.16
2022-09-11T07:28:46.856Z,100033.91
2022-09-11T07:31:51.297Z,100046.56
2022-09-11T07:34:56.798Z,100029.81
2022-09-11T07:38:13.192Z,100033.37
2022-09-11T07:41:15.982Z,100019.38
2022-09-11T07:44:29.843Z,100022.50
2022-09-11T07:47:41.746Z,100021.09
2022-09-11T07:51:02.781Z,100017.94
2022-09-11T07:54:05.355Z,100019.66
2022-09-11T07:57:07.865Z,100025.16
2022-09-11T08:00:10.801Z,100022.84
2022-09-11T08:03:13.784Z,100021.28
2022-09-11T08:06:28.193Z,100029.03
2022-09-11T08:09:30.794Z,100023.22
2022-09-11T08:12:47.980Z,100030.87
2022-09-11T08:15:55.803Z,100033.44
2022-09-11T08:18:59.610Z,100030.59
2022-09-11T08:22:14.826Z,100034.66
2022-09-11T08:25:27.741Z,100033.37
2022-09-11T08:28:33.121Z,100034.91
2022-09-11T08:32:01.596Z,100036.31
2022-09-11T08:35:11.634Z,100038.84
2022-09-11T08:38:23.018Z,100025.50
2022-09-11T08:41:31.790Z,100021.09
2022-09-11T08:45:21.278Z,100020.59
2022-09-11T08:48:28.755Z,100029.25
2022-09-11T08:51:38.369Z,100023.31
2022-09-11T08:54:42.566Z,100022.69
2022-09-11T08:58:33.420Z,100026.06
2022-09-11T09:01:52.400Z,100018.22
2022-09-11T09:05:04.971Z,100020.81
2022-09-11T09:08:27.607Z,100026.41
2022-09-11T09:11:33.819Z,100028.78
2022-09-11T09:14:35.988Z,100032.78
2022-09-11T09:17:43.620Z,100030.06
2022-09-11T09:21:04.761Z,100024.63
2022-09-11T09:24:19.676Z,100023.34
2022-09-11T09:27:32.159Z,100030.37
2022-09-11T09:30:56.817Z,100016.50
2022-09-11T09:34:14.965Z,100026.69
2022-09-11T09:37:27.440Z,100030.75
2022-09-11T09:40:33.988Z,100024.22
2022-09-11T09:43:48.150Z,100028.59
2022-09-11T09:46:53.254Z,100025.62
2022-09-11T09:49:58.754Z,100022.91
2022-09-11T09:53:07.634Z,100034.19
2022-09-11T09:56:13.267Z,100034.72
2022-09-11T09:59:18.829Z,100028.44
2022-09-11T10:02:51.080Z,100021.97
2022-09-11T10:05:55.003Z,100026.06
2022-09-11T10:09:01.375Z,100009.44
2022-09-11T10:12:07.586Z,100009.63
2022-09-11T10:15:18.360Z,100013.72
2022-09-11T10:18:26.627Z,100013.84
2022-09-11T10:21:30.331Z,100010.56
2022-09-11T10:24:34.341Z,99998.19
2022-09-11T10:27:40.725Z,100000.13
2022-09-11T10:30:49.363Z,100002.41
2022-09-11T10:33:53.253Z,99996.91
2022-09-11T10:37:04.112Z,100006.44
2022-09-11T10:40:09.454Z,100002.31
2022-09-11T10:43:27.420Z,100007.53
2022-09-11T10:46:41.501Z,100004.13
2022-09-11T10:49:44.940Z,100001.88
2022-09-11T10:53:04.736Z,100010.59
2022-09-11T10:56:08.747Z,100009.41
2022-09-11T10:59:17.865Z,100002.00
2022-09-11T11:02:26.334Z,100004.34
2022-09-11T11:05:58.350Z,100008.03
2022-09-11T11:09:00.596Z,99999.44
2022-09-11T11:12:15.401Z,99995.13
2022-09-11T11:15:18.313Z,99984.88
2022-09-11T11:18:43.371Z,99981.59
2022-09-11T11:21:50.076Z,99979.59
2022-09-11T11:25:07.500Z,99982.53
2022-09-11T11:28:28.656Z,99981.16
2022-09-11T11:31:49.510Z,99984.56
2022-09-11T11:35:10.433Z,99988.16
2022-09-11T11:38:34.904Z,99984.16
2022-09-11T11:41:45.449Z,99989.25
2022-09-11T11:44:54.711Z,99990.00
2022-09-11T11:47:57.627Z,99996.88
2022-09-11T11:51:03.573Z,99998.44
2022-09-11T11:54:06.908Z,99990.00
2022-09-11T11:57:18.563Z,99975.59
2022-09-11T12:00:21.963Z,99970.22
2022-09-11T12:03:32.361Z,99968.13
2022-09-11T12:06:36.268Z,99967.62
2022-09-11T12:09:38.818Z,99967.75
2022-09-11T12:13:07.518Z,99969.13
2022-09-11T12:16:12.812Z,99974.97
2022-09-11T12:19:27.636Z,99971.88
2022-09-11T12:22:39.256Z,99968.84
2022-09-11T12:25:50.514Z,99962.50
2022-09-11T12:29:19.264Z,99957.44
2022-09-11T12:32:26.502Z,99973.62
2022-09-11T12:35:44.105Z,99977.38
2022-09-11T12:38:50.641Z,99963.47
2022-09-11T12:41:54.329Z,99972.19
2022-09-11T12:44:58.761Z,99972.00
2022-09-11T12:48:22.414Z,99975.56
2022-09-11T12:51:27.331Z,99962.03
2022-09-11T12:54:41.436Z,99971.19
2022-09-11T12:57:44.098Z,99973.66
2022-09-11T13:00:49.650Z,99972.09
2022-09-11T13:03:55.612Z,99973.41
2022-09-11T13:06:59.653Z,99973.03
2022-09-11T13:10:11.636Z,99959.84
2022-09-11T13:13:33.592Z,99957.56
2022-09-11T13:16:36.578Z,99953.94
2022-09-11T13:19:39.555Z,99948.53
2022-09-11T13:22:43.312Z,99947.37
2022-09-11T13:25:45.737Z,99939.41
2022-09-11T13:28:50.185Z,99934.19
2022-09-11T13:31:53.785Z,99932.94
2022-09-11T13:35:00.177Z,99926.09
2022-09-11T13:38:09.017Z,99930.16
2022-09-11T13:41:17.383Z,99923.13
2022-09-11T13:44:33.710Z,99927.25
2022-09-11T13:47:40.670Z,99917.22
2022-09-11T13:50:45.075Z,99901.66
2022-09-11T13:53:56.103Z,99913.34
2022-09-11T13:56:59.392Z,99914.63
2022-09-11T14:00:01.601Z,99912.91
2022-09-11T14:03:06.996Z,99922.47
2022-09-11T14:06:21.374Z,99913.53
2022-09-11T14:09:27.558Z,99915.44
2022-09-11T14:12:37.083Z,99911.00
2022-09-11T14:15:42.855Z,99899.25
2022-09-11T14:19:06.912Z,99899.91
2022-09-11T14:22:27.859Z,99900.78
2022-09-11T14:25:32.081Z,99904.47
2022-09-11T14:28:45.771Z,99911.44
2022-09-11T14:31:52.792Z,99901.84
2022-09-11T14:34:56.296Z,99904.16
2022-09-11T14:38:01.600Z,99901.31
2022-09-11T14:41:11.548Z,99901.53
2022-09-11T14:44:16.350Z,99901.66
2022-09-11T14:47:20.040Z,99894.16
2022-09-11T14:50:25.040Z,99900.84
2022-09-11T14:53:29.214Z,99896.94
2022-09-11T14:56:32.770Z,99899.28
2022-09-11T14:59:35.325Z,99900.31
2022-09-11T15:02:41.096Z,99897.91
2022-09-11T15:05:48.131Z,99897.62
2022-09-11T15:08:50.604Z,99891.28
2022-09-11T15:11:53.317Z,99900.25
2022-09-11T15:14:58.775Z,99902.47
2022-09-11T15:18:01.450Z,99903.19
2022-09-11T15:21:04.759Z,99905.78
2022-09-11T15:24:07.229Z,99901.50
2022-09-11T15:27:10.926Z,99903.41
2022-09-11T15:30:13.709Z,99896.41
2022-09-11T15:33:15.961Z,99900.31
2022-09-11T15:36:18.900Z,99897.88
2022-09-11T15:39:26.874Z,99900.84
2022-09-11T15:42:28.785Z,99908.44
2022-09-11T15:45:32.264Z,99899.28
2022-09-11T15:48:34.785Z,99899.38
2022-09-11T15:51:43.851Z,99908.72
2022-09-11T15:54:48.978Z,99901.69
2022-09-11T15:57:52.206Z,99892.53
2022-09-11T16:00:55.945Z,99892.47
2022-09-11T16:04:03.637Z,99891.03
2022-09-11T16:07:06.025Z,99888.81
2022-09-11T16:10:09.671Z,99889.81
2022-09-11T16:13:16.040Z,99894.03
2022-09-11T16:16:19.098Z,99898.41
2022-09-11T16:19:24.072Z,99905.16
2022-09-11T16:22:31.275Z,99905.00
2022-09-11T16:25:38.652Z,99912.03
2022-09-11T16:28:41.650Z,99920.28
2022-09-11T16:31:45.077Z,99919.22
2022-09-11T16:34:47.415Z,99931.09
2022-09-11T16:37:51.014Z,99926.31
2022-09-11T16:41:01.562Z,99930.22
2022-09-11T16:44:05.636Z,99936.62
2022-09-11T16:47:11.508Z,99930.38
2022-09-11T16:50:14.244Z,99940.53
2022-09-11T16:53:17.354Z,99931.97
2022-09-11T16:56:22.240Z,99924.72
2022-09-11T16:59:26.706Z,99930.69
2022-09-11T17:02:30.198Z,99926.22
2022-09-11T17:05:33.404Z,99929.22
2022-09-11T17:08:41.799Z,99930.47
2022-09-11T17:11:45.510Z,99930.97
2022-09-11T17:14:49.121Z,99929.03
2022-09-11T17:17:51.499Z,99927.09
2022-09-11T17:20:59.663Z,99927.47
2022-09-11T17:24:03.110Z,99938.63
2022-09-11T17:27:06.053Z,99939.84
2022-09-11T17:30:10.632Z,99941.16
2022-09-11T17:33:16.406Z,99947.97
2022-09-11T17:36:21.414Z,99941.84
2022-09-11T17:39:25.559Z,99952.97
2022-09-11T17:42:30.553Z,99948.50
2022-09-11T17:45:33.322Z,99943.56
2022-09-11T17:48:36.682Z,99956.56
2022-09-11T17:51:41.391Z,99952.12
2022-09-11T17:54:44.196Z,99947.69
2022-09-11T17:57:52.387Z,99944.88
2022-09-11T18:00:56.153Z,99950.16
2022-09-11T18:04:02.390Z,99963.53
2022-09-11T18:07:06.480Z,99962.87
2022-09-11T18:10:14.386Z,99959.75
2022-09-11T18:13:17.393Z,99971.16
2022-09-11T18:16:21.588Z,99965.34
2022-09-11T18:19:24.666Z,99966.00
2022-09-11T18:22:29.823Z,99972.97
2022-09-11T18:25:37.220Z,99971.97
2022-09-11T18:28:41.031Z,99976.44
2022-09-11T18:31:45.307Z,99980.25
2022-09-11T18:34:48.729Z,99970.34
2022-09-11T18:37:54.615Z,99968.53
2022-09-11T18:41:00.119Z,99975.81
2022-09-11T18:44:04.688Z,99963.44
2022-09-11T18:47:08.059Z,99970.34
2022-09-11T18:50:11.092Z,99965.25
2022-09-11T18:53:16.310Z,99964.41
2022-09-11T18:56:20.039Z,99966.09
2022-09-11T18:59:24.348Z,99970.03
2022-09-11T19:02:27.850Z,99975.50
2022-09-11T19:05:32.901Z,99971.37
2022-09-11T19:08:39.515Z,99979.63
2022-09-11T19:11:41.890Z,99972.66
2022-09-11T19:14:45.152Z,99983.34
2022-09-11T19:17:48.877Z,99976.09
2022-09-11T19:21:01.048Z,99971.94
2022-09-11T19:24:03.732Z,99973.56
2022-09-11T19:27:06.768Z,99982.94
2022-09-11T19:30:09.780Z,99977.69
2022-09-11T19:33:13.837Z,99977.03
2022-09-11T19:36:17.635Z,99977.50
2022-09-11T19:39:21.811Z,99978.00
2022-09-11T19:42:24.838Z,99981.62
2022-09-11T19:45:28.647Z,99986.34
2022-09-11T19:48:32.672Z,99986.34
2022-09-11T19:51:38.013Z,99991.44
2022-09-11T19:54:42.514Z,99985.97
2022-09-11T19:57:45.720Z,99996.00
2022-09-11T20:00:48.199Z,99992.69
2022-09-11T20:03:51.993Z,99996.16
2022-09-11T20:10:00.467Z,99986.44
2022-09-11T20:13:04.532Z,99987.72
2022-09-11T20:16:18.232Z,99982.44
2022-09-11T20:19:21.221Z,99987.50
2022-09-11T20:22:24.916Z,99988.03
2022-09-11T20:25:28.060Z,99990.62
2022-09-11T20:28:30.659Z,99988.13
2022-09-11T20:31:48.648Z,99989.31
2022-09-11T20:34:51.652Z,99994.72
2022-09-11T20:37:57.354Z,99990.41
2022-09-11T20:41:01.260Z,99999.25
2022-09-11T20:44:04.957Z,99995.31
2022-09-11T20:47:10.105Z,99995.63
2022-09-11T20:50:13.738Z,99994.09
2022-09-11T20:53:16.231Z,99990.78
2022-09-11T20:56:21.415Z,99989.94
2022-09-11T20:59:23.809Z,100005.66
2022-09-11T21:02:26.381Z,100003.50
2022-09-11T21:05:30.188Z,100005.91
2022-09-11T21:08:34.803Z,99999.97
2022-09-11T21:11:37.492Z,100005.72
2022-09-11T21:14:40.743Z,100010.19
2022-09-11T21:17:43.208Z,100004.91
2022-09-11T21:20:52.903Z,100007.19
2022-09-11T21:23:56.116Z,100015.91
2022-09-11T21:26:58.510Z,100003.03
2022-09-11T21:30:01.174Z,100001.78
2022-09-11T21:33:03.343Z,100007.69
2022-09-11T21:36:06.544Z,100004.09
2022-09-11T21:39:09.478Z,100011.31
2022-09-11T21:42:12.800Z,100016.84
2022-09-11T21:45:15.282Z,100011.84
2022-09-11T21:48:17.382Z,100013.63
2022-09-11T21:51:21.994Z,100010.19
2022-09-11T21:54:26.778Z,100011.31
2022-09-11T21:57:31.529Z,100006.50
2022-09-11T22:00:42.089Z,100001.41
2022-09-11T22:03:48.804Z,99999.41
2022-09-11T22:06:51.280Z,100011.25
2022-09-11T22:09:54.386Z,100011.75
2022-09-11T22:12:58.253Z,100012.91
2022-09-11T22:16:03.602Z,100007.13
2022-09-11T22:19:08.733Z,100012.38
2022-09-11T22:22:11.570Z,100010.37
2022-09-11T22:25:16.067Z,100011.50
2022-09-11T22:28:21.159Z,100006.37
2022-09-11T22:31:26.168Z,100009.53
2022-09-11T22:34:28.600Z,100014.13
2022-09-11T22:37:32.105Z,100010.81
2022-09-11T22:40:34.477Z,100012.09
2022-09-11T22:43:36.828Z,100007.44
2022-09-11T22:46:39.419Z,100007.44
2022-09-11T22:49:42.486Z,100017.47
2022-09-11T22:52:45.392Z,100010.00
2022-09-11T22:55:49.828Z,100016.09
2022-09-11T22:58:53.872Z,100018.22
2022-09-11T23:01:56.567Z,100021.16
2022-09-11T23:05:19.110Z,100010.78
2022-09-11T23:08:29.635Z,100009.56
2022-09-11T23:11:34.042Z,100019.59
2022-09-11T23:14:37.442Z,100017.53
2022-09-11T23:17:39.587Z,100017.38
2022-09-11T23:20:42.621Z,100020.53
2022-09-11T23:23:45.765Z,100020.16
2022-09-11T23:26:48.495Z,100016.72
2022-09-11T23:29:51.035Z,100029.03
2022-09-11T23:32:55.272Z,100028.53
2022-09-11T23:35:57.892Z,100025.72
2022-09-11T23:39:02.070Z,100023.41
2022-09-11T23:42:04.224Z,100032.94
2022-09-11T23:45:08.350Z,100030.47
2022-09-11T23:48:10.540Z,100028.53
2022-09-11T23:51:12.871Z,100032.09
2022-09-11T23:54:15.473Z,100033.22
2022-09-11T23:57:17.675Z,100038.66
